createdAt,value
2018-05-16T00:00:30.700Z,65.10
2018-05-16T00:02:59.107Z,65.12
2018-05-16T00:05:28.572Z,65.61
2018-05-16T00:07:56.883Z,65.69
2018-05-16T00:10:25.256Z,66.04
2018-05-16T00:12:53.591Z,66.37
2018-05-16T00:15:21.989Z,66.43
2018-05-16T00:17:50.290Z,66.27
2018-05-16T00:20:18.626Z,65.80
2018-05-16T00:22:46.945Z,65.60
2018-05-16T00:25:15.329Z,65.17
2018-05-16T00:27:43.706Z,64.83
2018-05-16T00:30:12.057Z,64.44
2018-05-16T00:32:40.373Z,64.12
2018-05-16T00:35:08.753Z,63.69
2018-05-16T00:37:37.123Z,63.62
2018-05-16T00:40:05.505Z,63.51
2018-05-16T00:42:34.558Z,63.97
2018-05-16T00:45:03.187Z,64.14
2018-05-16T00:47:31.562Z,64.48
2018-05-16T00:50:00.738Z,64.37
2018-05-16T00:52:29.035Z,64.93
2018-05-16T00:54:57.418Z,65.22
2018-05-16T00:57:25.793Z,65.30
2018-05-16T00:59:54.125Z,65.58
2018-05-16T01:02:22.443Z,65.83
2018-05-16T01:04:51.446Z,65.85
2018-05-16T01:07:19.788Z,65.52
2018-05-16T01:09:48.174Z,65.42
2018-05-16T01:12:16.561Z,65.98
2018-05-16T01:14:44.933Z,66.06
2018-05-16T01:17:13.303Z,66.61
2018-05-16T01:19:41.880Z,66.76
2018-05-16T01:22:10.195Z,67.20
2018-05-16T01:24:38.592Z,67.94
2018-05-16T01:27:07.027Z,68.25
2018-05-16T01:29:35.400Z,68.41
2018-05-16T01:32:03.780Z,68.79
2018-05-16T01:34:32.196Z,69.42
2018-05-16T01:37:00.645Z,69.32
2018-05-16T01:39:29.181Z,69.32
2018-05-16T01:41:57.569Z,69.38
2018-05-16T01:44:25.903Z,69.85
2018-05-16T01:46:54.227Z,69.76
2018-05-16T01:49:23.079Z,69.71
2018-05-16T01:51:51.467Z,69.62
2018-05-16T01:54:19.901Z,69.19
2018-05-16T01:56:48.647Z,69.03
2018-05-16T01:59:17.012Z,68.76
2018-05-16T02:01:45.443Z,68.31
2018-05-16T02:04:14.100Z,68.30
2018-05-16T02:06:42.451Z,67.71
2018-05-16T02:09:10.794Z,68.37
2018-05-16T02:11:39.166Z,68.67
2018-05-16T02:14:07.511Z,68.96
2018-05-16T02:16:35.854Z,68.58
2018-05-16T02:19:04.265Z,68.63
2018-05-16T02:21:32.787Z,69.01
2018-05-16T02:24:01.265Z,69.01
2018-05-16T02:26:29.681Z,68.87
2018-05-16T02:28:58.200Z,68.65
2018-05-16T02:31:26.501Z,68.53
2018-05-16T02:33:54.876Z,68.51
2018-05-16T02:36:23.199Z,68.36
2018-05-16T02:38:51.639Z,68.37
2018-05-16T02:41:20.512Z,68.60
2018-05-16T02:43:48.857Z,68.62
2018-05-16T02:46:17.280Z,68.44
2018-05-16T02:48:46.539Z,68.32
2018-05-16T02:51:14.865Z,68.62
2018-05-16T02:53:43.207Z,68.14
2018-05-16T02:56:11.698Z,67.83
2018-05-16T02:58:40.161Z,67.47
2018-05-16T03:01:08.502Z,66.94
2018-05-16T03:03:36.933Z,66.59
2018-05-16T03:06:05.508Z,66.43
2018-05-16T03:08:33.843Z,66.87
2018-05-16T03:11:02.265Z,67.13
2018-05-16T03:13:30.645Z,66.83
2018-05-16T03:15:59.083Z,66.91
2018-05-16T03:18:27.440Z,66.47
2018-05-16T03:20:55.776Z,66.22
2018-05-16T03:23:24.088Z,65.83
2018-05-16T03:25:52.557Z,65.85
2018-05-16T03:28:20.877Z,66.25
2018-05-16T03:30:49.225Z,65.85
2018-05-16T03:33:17.623Z,65.98
2018-05-16T03:35:45.984Z,66.61
2018-05-16T03:38:14.319Z,66.64
2018-05-16T03:40:42.719Z,66.54
2018-05-16T03:43:11.077Z,66.09
2018-05-16T03:45:39.426Z,65.89
2018-05-16T03:48:08.124Z,65.86
2018-05-16T03:50:36.527Z,65.51
2018-05-16T03:53:05.059Z,65.07
2018-05-16T03:55:34.051Z,65.09
2018-05-16T03:58:22.938Z,64.65
2018-05-16T04:01:03.546Z,64.10
2018-05-16T04:03:43.723Z,63.80
2018-05-16T04:06:12.116Z,63.27
2018-05-16T04:08:40.585Z,62.68
2018-05-16T04:11:09.299Z,61.85
2018-05-16T04:13:38.630Z,61.11
2018-05-16T04:16:07.045Z,60.87
2018-05-16T04:18:35.433Z,60.62
2018-05-16T04:21:03.783Z,60.56
2018-05-16T04:23:32.113Z,60.24
2018-05-16T04:26:00.526Z,59.92
2018-05-16T04:28:29.083Z,59.41
2018-05-16T04:30:57.394Z,59.22
2018-05-16T04:33:25.726Z,58.99
2018-05-16T04:35:54.088Z,58.70
2018-05-16T04:38:22.425Z,58.73
2018-05-16T04:40:50.915Z,59.02
2018-05-16T04:43:19.953Z,59.18
2018-05-16T04:45:48.318Z,59.32
2018-05-16T04:48:16.667Z,59.27
2018-05-16T04:50:44.989Z,59.15
2018-05-16T04:53:13.314Z,58.91
2018-05-16T04:55:41.649Z,58.49
2018-05-16T04:58:10.036Z,58.55
2018-05-16T05:00:38.402Z,58.34
2018-05-16T05:03:06.888Z,58.14
2018-05-16T05:05:35.368Z,57.73
2018-05-16T05:08:03.748Z,57.90
2018-05-16T05:10:32.194Z,58.05
2018-05-16T05:13:01.245Z,58.17
2018-05-16T05:15:29.742Z,58.44
2018-05-16T05:17:58.081Z,59.14
2018-05-16T05:20:26.559Z,58.65
2018-05-16T05:22:54.917Z,59.07
2018-05-16T05:25:23.211Z,58.57
2018-05-16T05:27:51.912Z,59.14
2018-05-16T05:30:20.380Z,58.78
2018-05-16T05:32:48.653Z,58.57
2018-05-16T05:35:17.563Z,58.67
2018-05-16T05:37:45.962Z,58.52
2018-05-16T05:40:14.312Z,58.30
2018-05-16T05:42:42.750Z,58.24
2018-05-16T05:45:11.140Z,57.77
2018-05-16T05:47:39.770Z,57.53
2018-05-16T05:50:09.019Z,57.61
2018-05-16T05:52:38.531Z,57.08
2018-05-16T05:55:06.924Z,56.58
2018-05-16T05:57:35.692Z,55.81
2018-05-16T06:00:04.031Z,54.79
2018-05-16T06:02:32.562Z,54.01
2018-05-16T06:05:01.269Z,53.89
2018-05-16T06:07:29.880Z,53.61
2018-05-16T06:09:58.419Z,53.15
2018-05-16T06:12:26.853Z,52.97
2018-05-16T06:14:55.195Z,52.82
2018-05-16T06:17:23.565Z,51.93
2018-05-16T06:19:53.466Z,51.73
2018-05-16T06:22:22.757Z,51.10
2018-05-16T06:24:51.073Z,51.16
2018-05-16T06:27:20.479Z,51.92
2018-05-16T06:29:48.724Z,50.99
2018-05-16T06:32:17.012Z,50.11
2018-05-16T06:34:45.389Z,49.92
2018-05-16T06:37:13.761Z,50.37
2018-05-16T06:39:42.049Z,50.15
2018-05-16T06:42:10.595Z,50.15
2018-05-16T06:44:38.927Z,49.49
2018-05-16T06:47:07.369Z,48.77
2018-05-16T06:49:35.705Z,47.81
2018-05-16T06:52:04.045Z,47.26
2018-05-16T06:54:32.501Z,46.90
2018-05-16T06:57:01.320Z,46.24
2018-05-16T06:59:29.772Z,46.15
2018-05-16T07:01:58.081Z,45.73
2018-05-16T07:04:27.182Z,45.51
2018-05-16T07:06:55.527Z,46.09
2018-05-16T07:09:23.845Z,46.86
2018-05-16T07:11:52.921Z,47.02
2018-05-16T07:14:21.250Z,47.03
2018-05-16T07:16:49.585Z,47.21
2018-05-16T07:19:17.939Z,47.40
2018-05-16T07:21:46.326Z,47.68
2018-05-16T07:24:14.630Z,47.39
2018-05-16T07:26:46.677Z,47.97
2018-05-16T07:29:15.032Z,47.75
2018-05-16T07:31:43.385Z,48.06
2018-05-16T07:34:11.835Z,48.02
2018-05-16T07:36:40.189Z,48.19
2018-05-16T07:39:08.557Z,48.15
2018-05-16T07:41:37.173Z,48.50
2018-05-16T07:44:05.538Z,49.17
2018-05-16T07:46:33.930Z,49.33
2018-05-16T07:49:03.172Z,49.32
2018-05-16T07:51:31.654Z,49.47
2018-05-16T07:54:01.200Z,49.85
2018-05-16T07:56:29.636Z,50.42
2018-05-16T07:58:57.941Z,50.83
2018-05-16T08:01:26.279Z,50.63
2018-05-16T08:03:54.627Z,50.61
2018-05-16T08:06:22.983Z,50.68
2018-05-16T08:08:51.274Z,50.76
2018-05-16T08:11:19.605Z,50.79
2018-05-16T08:13:47.936Z,50.55
2018-05-16T08:16:16.332Z,50.21
2018-05-16T08:18:44.666Z,50.78
2018-05-16T08:21:13.010Z,50.41
2018-05-16T08:23:41.375Z,50.68
2018-05-16T08:26:09.772Z,51.03
2018-05-16T08:28:38.286Z,50.73
2018-05-16T08:31:06.664Z,49.79
2018-05-16T08:33:35.007Z,49.94
2018-05-16T08:36:03.395Z,50.13
2018-05-16T08:38:31.927Z,50.78
2018-05-16T08:41:00.896Z,51.01
2018-05-16T08:43:29.488Z,50.64
2018-05-16T08:45:57.863Z,50.16
2018-05-16T08:48:26.665Z,50.15
2018-05-16T08:50:55.004Z,50.45
2018-05-16T08:53:23.415Z,49.91
2018-05-16T08:55:52.309Z,49.93
2018-05-16T08:58:20.632Z,49.38
2018-05-16T09:00:48.959Z,49.11
2018-05-16T09:03:18.053Z,48.49
2018-05-16T09:05:46.370Z,47.87
2018-05-16T09:08:14.714Z,48.32
2018-05-16T09:10:43.307Z,48.63
2018-05-16T09:13:11.725Z,48.73
2018-05-16T09:15:40.508Z,49.12
2018-05-16T09:18:09.744Z,49.04
2018-05-16T09:20:38.089Z,49.11
2018-05-16T09:23:06.440Z,49.36
2018-05-16T09:25:35.153Z,48.78
2018-05-16T09:28:03.583Z,48.47
2018-05-16T09:30:31.944Z,47.95
2018-05-16T09:33:01.038Z,47.98
2018-05-16T09:35:30.231Z,47.31
2018-05-16T09:37:58.649Z,46.61
2018-05-16T09:40:27.209Z,45.63
2018-05-16T09:42:55.495Z,45.00
2018-05-16T09:45:23.831Z,44.79
2018-05-16T09:47:52.998Z,44.99
2018-05-16T09:50:21.301Z,44.77
2018-05-16T09:52:49.667Z,44.81
2018-05-16T09:55:18.269Z,45.07
2018-05-16T09:57:46.652Z,45.01
2018-05-16T10:00:15.005Z,45.14
2018-05-16T10:02:43.936Z,44.24
2018-05-16T10:05:12.246Z,43.24
2018-05-16T10:07:40.638Z,42.22
2018-05-16T10:10:09.061Z,42.65
2018-05-16T10:12:37.520Z,42.65
2018-05-16T10:15:05.895Z,45.12
2018-05-16T10:17:34.781Z,44.89
2018-05-16T10:20:03.138Z,44.17
2018-05-16T10:22:31.648Z,44.97
2018-05-16T10:25:00.855Z,44.99
2018-05-16T10:27:29.224Z,44.40
2018-05-16T10:29:57.538Z,43.80
2018-05-16T10:32:25.899Z,43.77
2018-05-16T10:34:54.209Z,43.08
2018-05-16T10:37:22.533Z,42.71
2018-05-16T10:39:51.054Z,42.56
2018-05-16T10:42:19.405Z,40.68
2018-05-16T10:44:47.704Z,41.87
2018-05-16T10:47:16.050Z,42.42
2018-05-16T10:49:44.442Z,42.29
2018-05-16T10:52:13.283Z,42.76
2018-05-16T10:54:41.589Z,40.83
2018-05-16T10:57:09.970Z,42.14
2018-05-16T10:59:38.337Z,41.52
2018-05-16T11:02:06.765Z,41.54
2018-05-16T11:04:35.523Z,41.25
2018-05-16T11:07:03.912Z,41.48
2018-05-16T11:09:32.574Z,40.09
2018-05-16T11:12:00.904Z,39.95
2018-05-16T11:14:29.262Z,40.28
2018-05-16T11:16:57.614Z,41.05
2018-05-16T11:19:25.943Z,40.72
2018-05-16T11:21:54.268Z,39.33
2018-05-16T11:24:22.640Z,37.92
2018-05-16T11:26:51.024Z,38.09
2018-05-16T11:29:20.206Z,37.69
2018-05-16T11:31:49.009Z,37.58
2018-05-16T11:34:17.265Z,37.36
2018-05-16T11:36:45.585Z,38.77
2018-05-16T11:39:14.042Z,40.08
2018-05-16T11:41:42.385Z,39.67
2018-05-16T11:44:10.726Z,40.07
2018-05-16T11:46:39.499Z,39.31
2018-05-16T11:49:07.909Z,38.35
2018-05-16T11:51:36.308Z,36.21
2018-05-16T11:54:06.065Z,35.10
2018-05-16T11:56:34.519Z,35.42
2018-05-16T11:59:03.046Z,35.88
2018-05-16T12:01:31.605Z,34.34
2018-05-16T12:04:00.360Z,35.08
2018-05-16T12:06:28.774Z,35.66
2018-05-16T12:08:57.457Z,35.04
2018-05-16T12:11:25.784Z,34.93
2018-05-16T12:13:54.104Z,33.81
2018-05-16T12:16:23.264Z,34.65
2018-05-16T12:18:51.788Z,33.93
2018-05-16T12:21:20.109Z,34.25
2018-05-16T12:23:48.643Z,34.55
2018-05-16T12:26:16.988Z,34.97
2018-05-16T12:28:45.311Z,34.12
2018-05-16T12:31:14.765Z,34.68
2018-05-16T12:33:43.168Z,34.44
2018-05-16T12:36:11.538Z,35.27
2018-05-16T12:38:40.435Z,37.42
2018-05-16T12:41:08.894Z,38.35
2018-05-16T12:43:37.317Z,39.38
2018-05-16T12:46:06.187Z,39.44
2018-05-16T12:48:34.597Z,39.46
2018-05-16T12:51:03.358Z,39.22
2018-05-16T12:53:31.752Z,38.48
2018-05-16T12:56:00.114Z,38.73
2018-05-16T12:58:28.492Z,39.89
2018-05-16T13:00:56.851Z,39.96
2018-05-16T13:03:25.170Z,40.96
2018-05-16T13:05:53.470Z,41.22
2018-05-16T13:08:21.933Z,40.92
2018-05-16T13:10:50.226Z,41.07
2018-05-16T13:13:18.570Z,39.23
2018-05-16T13:15:47.742Z,39.81
2018-05-16T13:18:16.083Z,39.80
2018-05-16T13:20:44.487Z,40.72
2018-05-16T13:23:12.943Z,40.50
2018-05-16T13:25:41.359Z,41.15
2018-05-16T13:28:14.193Z,40.28
2018-05-16T13:30:42.889Z,40.38
2018-05-16T13:33:11.395Z,40.66
2018-05-16T13:35:39.985Z,40.52
2018-05-16T13:38:08.679Z,41.53
2018-05-16T13:40:37.004Z,41.60
2018-05-16T13:43:05.401Z,42.09
2018-05-16T13:45:34.657Z,42.67
2018-05-16T13:48:03.059Z,42.92
2018-05-16T13:50:31.439Z,43.30
2018-05-16T13:53:00.369Z,43.75
2018-05-16T13:55:28.976Z,44.06
2018-05-16T13:57:57.307Z,44.09
2018-05-16T14:00:25.672Z,44.45
2018-05-16T14:02:53.990Z,44.61
2018-05-16T14:05:22.329Z,45.46
2018-05-16T14:07:50.726Z,45.48
2018-05-16T14:10:19.060Z,46.05
2018-05-16T14:12:47.430Z,45.87
2018-05-16T14:15:15.843Z,46.67
2018-05-16T14:17:44.339Z,47.27
2018-05-16T14:20:12.696Z,46.58
2018-05-16T14:22:42.143Z,46.84
2018-05-16T14:25:10.568Z,46.80
2018-05-16T14:27:38.941Z,47.06
2018-05-16T14:30:07.488Z,47.98
2018-05-16T14:32:36.101Z,48.45
2018-05-16T14:35:04.663Z,49.17
2018-05-16T14:37:33.448Z,48.83
2018-05-16T14:40:02.308Z,46.61
2018-05-16T14:42:30.850Z,44.92
2018-05-16T14:44:59.808Z,43.66
2018-05-16T14:47:28.114Z,41.37
2018-05-16T14:49:56.418Z,40.66
2018-05-16T14:52:24.843Z,40.07
2018-05-16T14:54:53.185Z,40.08
2018-05-16T14:57:21.499Z,39.66
2018-05-16T14:59:50.617Z,37.22
2018-05-16T15:02:18.954Z,36.20
2018-05-16T15:04:47.370Z,35.12
2018-05-16T15:07:16.237Z,34.46
2018-05-16T15:09:44.594Z,34.99
2018-05-16T15:12:12.911Z,34.73
2018-05-16T15:14:42.172Z,34.43
2018-05-16T15:17:10.707Z,35.01
2018-05-16T15:19:39.101Z,34.98
2018-05-16T15:22:07.620Z,35.20
2018-05-16T15:24:36.311Z,35.28
2018-05-16T15:27:04.785Z,35.25
2018-05-16T15:29:33.996Z,36.03
2018-05-16T15:32:02.388Z,36.34
2018-05-16T15:34:30.876Z,37.11
2018-05-16T15:37:00.026Z,37.59
2018-05-16T15:39:28.384Z,37.41
2018-05-16T15:41:56.715Z,37.48
2018-05-16T15:44:25.360Z,36.94
2018-05-16T15:46:53.678Z,37.27
2018-05-16T15:49:22.177Z,37.68
2018-05-16T15:51:50.596Z,38.25
2018-05-16T15:54:18.933Z,38.54
2018-05-16T15:56:47.255Z,38.13
2018-05-16T15:59:15.734Z,37.57
2018-05-16T16:01:44.203Z,37.37
2018-05-16T16:04:12.704Z,37.31
2018-05-16T16:06:41.881Z,37.56
2018-05-16T16:09:10.247Z,36.87
2018-05-16T16:11:38.634Z,37.54
2018-05-16T16:14:07.288Z,37.30
2018-05-16T16:16:36.100Z,37.72
2018-05-16T16:19:04.488Z,37.42
2018-05-16T16:21:34.073Z,37.08
2018-05-16T16:24:02.549Z,37.23
2018-05-16T16:26:31.030Z,37.30
2018-05-16T16:28:59.554Z,37.28
2018-05-16T16:31:28.033Z,36.61
2018-05-16T16:33:56.246Z,36.39
2018-05-16T16:36:24.583Z,35.85
2018-05-16T16:38:53.149Z,36.17
2018-05-16T16:41:21.357Z,36.40
2018-05-16T16:43:49.786Z,36.58
2018-05-16T16:46:18.186Z,36.37
2018-05-16T16:48:46.558Z,36.63
2018-05-16T16:51:15.416Z,36.76
2018-05-16T16:53:43.843Z,37.03
2018-05-16T16:56:12.228Z,36.68
2018-05-16T16:58:41.024Z,37.13
2018-05-16T17:01:09.452Z,36.26
2018-05-16T17:03:37.891Z,36.80
2018-05-16T17:06:06.357Z,37.38
2018-05-16T17:08:34.763Z,37.66
2018-05-16T17:11:03.793Z,37.79
2018-05-16T17:13:33.739Z,38.00
2018-05-16T17:16:02.424Z,38.33
2018-05-16T17:18:31.724Z,38.53
2018-05-16T17:21:00.513Z,38.32
2018-05-16T17:23:28.908Z,38.08
2018-05-16T17:25:57.360Z,38.52
2018-05-16T17:28:25.851Z,38.81
2018-05-16T17:30:54.224Z,39.15
2018-05-16T17:33:22.589Z,39.95
2018-05-16T17:35:51.091Z,40.34
2018-05-16T17:38:19.459Z,40.04
2018-05-16T17:40:47.810Z,40.62
2018-05-16T17:43:16.221Z,41.29
2018-05-16T17:45:44.637Z,41.77
2018-05-16T17:48:13.006Z,42.89
2018-05-16T17:50:41.466Z,43.35
2018-05-16T17:53:09.892Z,43.85
2018-05-16T17:55:38.321Z,44.33
2018-05-16T17:58:07.006Z,43.52
2018-05-16T18:00:35.459Z,43.33
2018-05-16T18:03:03.774Z,43.56
2018-05-16T18:05:33.311Z,43.77
2018-05-16T18:08:02.270Z,43.99
2018-05-16T18:10:31.069Z,43.67
2018-05-16T18:16:40.024Z,44.86
2018-05-16T18:19:08.482Z,46.06
2018-05-16T18:21:36.899Z,45.79
2018-05-16T18:24:05.253Z,45.27
2018-05-16T18:26:34.433Z,45.45
2018-05-16T18:29:02.811Z,46.41
2018-05-16T18:31:31.227Z,47.29
2018-05-16T18:33:59.697Z,47.68
2018-05-16T18:36:28.043Z,47.61
2018-05-16T18:38:56.352Z,47.80
2018-05-16T18:41:24.711Z,48.12
2018-05-16T18:43:53.024Z,47.90
2018-05-16T18:46:21.371Z,48.56
2018-05-16T18:48:50.205Z,48.85
2018-05-16T18:51:18.842Z,48.52
2018-05-16T18:53:47.199Z,48.69
2018-05-16T18:56:16.313Z,48.92
2018-05-16T18:58:44.623Z,48.26
2018-05-16T19:01:13.030Z,48.18
2018-05-16T19:03:41.431Z,47.06
2018-05-16T19:06:09.897Z,47.81
2018-05-16T19:08:38.304Z,47.61
2018-05-16T19:11:07.545Z,47.65
2018-05-16T19:13:35.921Z,47.75
2018-05-16T19:16:04.360Z,48.58
2018-05-16T19:18:32.943Z,49.23
2018-05-16T19:21:02.346Z,49.56
2018-05-16T19:23:30.777Z,49.41
2018-05-16T19:25:59.111Z,49.98
2018-05-16T19:28:27.490Z,49.93
2018-05-16T19:30:55.828Z,50.14
2018-05-16T19:33:24.205Z,50.46
2018-05-16T19:35:52.534Z,50.23
2018-05-16T19:38:20.848Z,50.42
2018-05-16T19:40:49.189Z,50.70
2018-05-16T19:43:17.544Z,51.11
2018-05-16T19:45:45.928Z,51.09
2018-05-16T19:48:14.302Z,51.35
2018-05-16T19:50:42.954Z,51.17
2018-05-16T19:53:11.482Z,51.39
2018-05-16T19:55:40.218Z,51.53
2018-05-16T19:58:08.555Z,52.07
2018-05-16T20:00:36.873Z,52.06
2018-05-16T20:03:06.224Z,52.17
2018-05-16T20:05:35.337Z,52.06
2018-05-16T20:08:03.753Z,52.24
2018-05-16T20:10:32.971Z,52.76
2018-05-16T20:13:01.326Z,52.70
2018-05-16T20:15:29.747Z,52.79
2018-05-16T20:17:58.842Z,52.82
2018-05-16T20:20:27.139Z,53.37
2018-05-16T20:22:55.441Z,53.23
2018-05-16T20:25:23.784Z,53.31
2018-05-16T20:27:52.097Z,53.77
2018-05-16T20:30:20.437Z,54.21
2018-05-16T20:32:48.845Z,54.27
2018-05-16T20:35:17.206Z,54.15
2018-05-16T20:37:45.552Z,54.85
2018-05-16T20:40:13.886Z,55.09
2018-05-16T20:42:42.203Z,55.62
2018-05-16T20:45:10.585Z,55.41
2018-05-16T20:47:38.963Z,55.33
2018-05-16T20:50:07.403Z,55.34
2018-05-16T20:52:35.822Z,55.26
2018-05-16T20:55:04.441Z,55.67
2018-05-16T20:57:32.841Z,56.07
2018-05-16T21:00:01.446Z,56.53
2018-05-16T21:02:29.958Z,56.64
2018-05-16T21:04:58.276Z,57.19
2018-05-16T21:07:26.672Z,57.67
2018-05-16T21:09:55.433Z,57.71
2018-05-16T21:12:23.805Z,58.30
2018-05-16T21:14:52.123Z,58.96
2018-05-16T21:17:20.568Z,58.81
2018-05-16T21:19:48.885Z,58.97
2018-05-16T21:22:17.244Z,59.10
2018-05-16T21:24:46.215Z,58.88
2018-05-16T21:27:14.547Z,59.49
2018-05-16T21:29:42.906Z,60.32
2018-05-16T21:32:11.407Z,60.50
2018-05-16T21:34:40.261Z,60.16
2018-05-16T21:37:08.688Z,60.12
2018-05-16T21:39:37.426Z,60.25
2018-05-16T21:42:05.803Z,60.55
2018-05-16T21:44:34.139Z,60.56
2018-05-16T21:47:03.141Z,60.77
2018-05-16T21:49:31.578Z,61.94
2018-05-16T21:52:00.034Z,62.10
2018-05-16T21:54:29.170Z,62.18
2018-05-16T21:56:57.535Z,62.65
2018-05-16T21:59:25.880Z,63.02
2018-05-16T22:01:54.998Z,63.14
2018-05-16T22:04:24.687Z,63.37
2018-05-16T22:06:52.987Z,63.58
2018-05-16T22:09:21.368Z,64.05
2018-05-16T22:11:49.769Z,64.31
2018-05-16T22:14:18.415Z,64.40
2018-05-16T22:16:46.959Z,64.83
2018-05-16T22:19:15.268Z,65.01
2018-05-16T22:21:43.577Z,65.41
2018-05-16T22:24:12.453Z,65.48
2018-05-16T22:26:40.781Z,65.77
2018-05-16T22:29:09.118Z,65.72
2018-05-16T22:31:43.541Z,66.15
2018-05-16T22:34:17.483Z,66.55
2018-05-16T22:36:51.499Z,66.71
2018-05-16T22:39:26.143Z,66.73
2018-05-16T22:42:00.341Z,67.29
2018-05-16T22:44:35.425Z,67.23
2018-05-16T22:47:03.984Z,67.98
2018-05-16T22:49:32.341Z,68.04
2018-05-16T22:52:01.225Z,67.98
2018-05-16T22:54:29.690Z,68.14
2018-05-16T22:56:58.032Z,68.55
2018-05-16T22:59:26.369Z,68.28
2018-05-16T23:01:54.727Z,68.67
2018-05-16T23:04:23.095Z,68.66
2018-05-16T23:06:51.398Z,68.98
2018-05-16T23:09:19.977Z,68.73
2018-05-16T23:11:48.350Z,68.78
2018-05-16T23:14:16.632Z,68.97
2018-05-16T23:16:45.252Z,69.05
2018-05-16T23:19:13.580Z,69.36
2018-05-16T23:21:42.053Z,69.80
2018-05-16T23:24:11.209Z,69.59
2018-05-16T23:26:39.584Z,70.15
2018-05-16T23:29:08.095Z,70.17
2018-05-16T23:31:36.885Z,70.58
2018-05-16T23:34:05.468Z,70.47
2018-05-16T23:36:33.820Z,70.57
2018-05-16T23:39:02.524Z,70.76
2018-05-16T23:41:31.003Z,71.19
2018-05-16T23:43:59.385Z,71.13
2018-05-16T23:46:27.773Z,71.18
2018-05-16T23:48:56.072Z,71.51
2018-05-16T23:51:24.467Z,71.88
2018-05-16T23:53:52.798Z,72.59
2018-05-16T23:56:21.130Z,72.68
2018-05-16T23:58:49.450Z,72.87
